Time,TemperatureF,DewpointF,PressureIn,WindDirection,WindDirectionDegrees,WindSpeedMPH,WindSpeedGustMPH,Humidity,HourlyPrecipIn,Conditions,Clouds,dailyrainin,SoftwareType,DateUTC
2013-04-23 00:13:00,61.1,42.0,29.96,SSE,165,0.0,3.0,50,0.00,,,0.00,weatherlink.com 1.10,2013-04-23 05:13:00,
2013-04-23 00:28:00,61.1,43.0,29.95,SSE,165,2.0,4.0,51,0.00,,,0.00,weatherlink.com 1.10,2013-04-23 05:28:00,
2013-04-23 00:43:00,61.3,43.0,29.95,SSE,164,2.0,7.0,52,0.00,,,0.00,weatherlink.com 1.10,2013-04-23 05:43:00,
2013-04-23 00:58:00,61.0,44.0,29.95,SSE,164,5.0,6.0,54,0.00,,,0.00,weatherlink.com 1.10,2013-04-23 05:58:00,
2013-04-23 01:13:00,60.5,44.0,29.94,SSE,164,5.0,6.0,55,0.00,,,0.00,weatherlink.com 1.10,2013-04-23 06:13:00,
2013-04-23 01:28:00,60.5,45.0,29.95,SSE,164,1.0,5.0,56,0.00,,,0.00,weatherlink.com 1.10,2013-04-23 06:28:00,
2013-04-23 01:43:00,60.4,45.0,29.94,SSE,164,1.0,6.0,57,0.00,,,0.00,weatherlink.com 1.10,2013-04-23 06:43:00,
2013-04-23 01:58:00,60.0,45.0,29.94,SSE,164,1.0,3.0,58,0.00,,,0.00,weatherlink.com 1.10,2013-04-23 06:58:00,
2013-04-23 02:13:00,59.5,45.0,29.94,SSE,164,2.0,3.0,60,0.00,,,0.00,weatherlink.com 1.10,2013-04-23 07:13:00,
2013-04-23 02:28:00,59.1,45.0,29.94,SSE,164,1.0,3.0,61,0.00,,,0.00,weatherlink.com 1.10,2013-04-23 07:28:00,
2013-04-23 02:43:00,59.0,46.0,29.95,SSE,164,0.0,2.0,62,0.00,,,0.00,weatherlink.com 1.10,2013-04-23 07:43:00,
2013-04-23 02:58:00,58.4,46.0,29.95,SSE,164,0.0,0.0,63,0.00,,,0.00,weatherlink.com 1.10,2013-04-23 07:58:00,
2013-04-23 03:13:00,57.9,47.0,29.94,SSE,164,0.0,1.0,67,0.00,,,0.00,weatherlink.com 1.10,2013-04-23 08:13:00,
2013-04-23 03:28:00,57.5,47.0,29.93,SSE,164,0.0,1.0,68,0.00,,,0.00,weatherlink.com 1.10,2013-04-23 08:28:00,
2013-04-23 03:43:00,56.8,49.0,29.92,SSE,164,0.0,1.0,74,0.00,,,0.00,weatherlink.com 1.10,2013-04-23 08:43:00,
2013-04-23 03:58:00,56.1,49.0,29.92,SSE,164,1.0,2.0,78,0.00,,,0.00,weatherlink.com 1.10,2013-04-23 08:58:00,
2013-04-23 04:13:00,55.3,50.0,29.92,SSE,164,0.0,1.0,81,0.00,,,0.00,weatherlink.com 1.10,2013-04-23 09:13:00,
2013-04-23 04:28:00,54.7,48.0,29.91,SSE,164,0.0,2.0,79,0.00,,,0.00,weatherlink.com 1.10,2013-04-23 09:28:00,
2013-04-23 04:44:00,54.7,49.0,29.91,SSE,164,0.0,1.0,81,0.00,,,0.00,weatherlink.com 1.10,2013-04-23 09:44:00,
2013-04-23 04:59:00,54.6,49.0,29.91,SSE,164,0.0,2.0,81,0.00,,,0.00,weatherlink.com 1.10,2013-04-23 09:59:00,
2013-04-23 05:14:00,54.4,49.0,29.91,SSE,164,1.0,2.0,83,0.00,,,0.00,weatherlink.com 1.10,2013-04-23 10:14:00,
2013-04-23 05:29:00,54.1,49.0,29.91,SSE,164,1.0,4.0,84,0.00,,,0.00,weatherlink.com 1.10,2013-04-23 10:29:00,
2013-04-23 05:44:00,54.0,49.0,29.92,SSE,164,0.0,2.0,84,0.01,,,0.01,weatherlink.com 1.10,2013-04-23 10:44:00,
2013-04-23 05:59:00,53.3,50.0,29.92,WNW,298,3.0,5.0,88,0.02,,,0.02,weatherlink.com 1.10,2013-04-23 10:59:00,
2013-04-23 06:14:00,52.2,49.0,29.93,NNW,341,3.0,6.0,89,0.03,,,0.03,weatherlink.com 1.10,2013-04-23 11:14:00,
2013-04-23 06:29:00,51.5,49.0,29.92,NNW,340,2.0,9.0,91,0.03,,,0.03,weatherlink.com 1.10,2013-04-23 11:29:00,
2013-04-23 06:44:00,51.0,49.0,29.93,NNW,345,1.0,10.0,91,0.03,,,0.04,weatherlink.com 1.10,2013-04-23 11:44:00,
2013-04-23 06:59:00,50.7,49.0,29.94,North,5,5.0,10.0,92,0.04,,,0.06,weatherlink.com 1.10,2013-04-23 11:59:00,
2013-04-23 07:14:00,50.4,49.0,29.95,North,5,5.0,9.0,93,0.05,,,0.08,weatherlink.com 1.10,2013-04-23 12:14:00,
2013-04-23 07:29:00,50.3,49.0,29.96,NNW,346,3.0,7.0,94,0.08,,,0.11,weatherlink.com 1.10,2013-04-23 12:29:00,
2013-04-23 07:44:00,50.3,49.0,29.97,NNW,345,3.0,9.0,94,0.10,,,0.14,weatherlink.com 1.10,2013-04-23 12:44:00,
2013-04-23 07:59:00,50.3,49.0,29.98,North,5,6.0,9.0,95,0.13,,,0.19,weatherlink.com 1.10,2013-04-23 12:59:00,
2013-04-23 08:14:00,48.6,46.0,29.99,NW,323,10.0,15.0,92,0.17,,,0.25,weatherlink.com 1.10,2013-04-23 13:14:00,
2013-04-23 08:29:00,46.1,44.0,29.98,NNW,332,5.0,15.0,93,0.20,,,0.31,weatherlink.com 1.10,2013-04-23 13:29:00,
2013-04-23 08:44:00,44.9,43.0,29.96,NNE,15,6.0,13.0,94,0.23,,,0.37,weatherlink.com 1.10,2013-04-23 13:44:00,
2013-04-23 08:59:00,44.5,43.0,29.95,NE,38,6.0,12.0,95,0.24,,,0.43,weatherlink.com 1.10,2013-04-23 13:59:00,
2013-04-23 09:14:00,44.0,42.0,29.96,ENE,67,14.0,14.0,94,0.19,,,0.44,weatherlink.com 1.10,2013-04-23 14:14:00,
2013-04-23 09:29:00,43.8,43.0,29.93,NNE,31,14.0,19.0,95,0.12,,,0.44,weatherlink.com 1.10,2013-04-23 14:29:00,
2013-04-23 09:44:00,44.1,43.0,29.93,NE,40,17.0,18.0,95,0.07,,,0.44,weatherlink.com 1.10,2013-04-23 14:44:00,
2013-04-23 09:59:00,44.1,43.0,29.94,North,9,8.0,16.0,94,0.01,,,0.44,weatherlink.com 1.10,2013-04-23 14:59:00,
2013-04-23 10:14:00,44.2,43.0,29.95,North,360,7.0,12.0,94,0.00,,,0.44,weatherlink.com 1.10,2013-04-23 15:14:00,
2013-04-23 10:29:00,44.1,43.0,29.95,NNE,30,8.0,12.0,94,0.00,,,0.44,weatherlink.com 1.10,2013-04-23 15:29:00,
2013-04-23 10:44:00,44.0,43.0,29.94,NNE,15,5.0,11.0,95,0.01,,,0.45,weatherlink.com 1.10,2013-04-23 15:44:00,
2013-04-23 10:59:00,44.0,43.0,29.94,NE,39,6.0,13.0,95,0.02,,,0.46,weatherlink.com 1.10,2013-04-23 15:59:00,
2013-04-23 11:14:00,43.8,43.0,29.95,NE,35,5.0,13.0,95,0.03,,,0.47,weatherlink.com 1.10,2013-04-23 16:14:00,
2013-04-23 11:30:00,43.4,42.0,29.96,NNW,335,8.0,15.0,95,0.06,,,0.50,weatherlink.com 1.10,2013-04-23 16:30:00,
2013-04-23 11:45:00,43.1,42.0,29.95,NNW,327,6.0,11.0,95,0.09,,,0.54,weatherlink.com 1.10,2013-04-23 16:45:00,
2013-04-23 12:00:00,42.8,42.0,29.94,North,5,7.0,11.0,95,0.10,,,0.56,weatherlink.com 1.10,2013-04-23 17:00:00,
2013-04-23 12:15:00,42.8,42.0,29.94,NNW,339,7.0,12.0,95,0.09,,,0.56,weatherlink.com 1.10,2013-04-23 17:15:00,
2013-04-23 12:30:00,41.8,40.0,29.94,North,349,8.0,14.0,94,0.07,,,0.57,weatherlink.com 1.10,2013-04-23 17:30:00,
2013-04-23 12:45:00,41.5,40.0,29.94,North,350,16.0,16.0,94,0.03,,,0.57,weatherlink.com 1.10,2013-04-23 17:45:00,
2013-04-23 13:00:00,41.1,40.0,29.94,NNW,334,5.0,12.0,94,0.01,,,0.57,weatherlink.com 1.10,2013-04-23 18:00:00,
2013-04-23 13:15:00,39.9,38.0,29.95,NW,312,5.0,15.0,94,0.01,,,0.57,weatherlink.com 1.10,2013-04-23 18:15:00,
2013-04-23 13:30:00,39.2,38.0,29.95,NNE,19,17.0,18.0,94,0.00,,,0.57,weatherlink.com 1.10,2013-04-23 18:30:00,
2013-04-23 13:45:00,38.7,37.0,29.95,NNW,346,6.0,15.0,94,0.01,,,0.58,weatherlink.com 1.10,2013-04-23 18:45:00,
2013-04-23 14:00:00,38.5,37.0,29.95,NNW,335,4.0,14.0,95,0.02,,,0.59,weatherlink.com 1.10,2013-04-23 19:00:00,
2013-04-23 14:15:00,38.4,37.0,29.96,North,360,7.0,14.0,95,0.03,,,0.60,weatherlink.com 1.10,2013-04-23 19:15:00,
2013-04-23 14:30:00,38.0,37.0,29.96,North,5,11.0,16.0,95,0.04,,,0.61,weatherlink.com 1.10,2013-04-23 19:30:00,
2013-04-23 14:45:00,38.0,37.0,29.96,NNW,347,7.0,14.0,95,0.04,,,0.62,weatherlink.com 1.10,2013-04-23 19:45:00,
2013-04-23 15:00:00,37.8,37.0,29.97,NNW,336,6.0,14.0,95,0.03,,,0.62,weatherlink.com 1.10,2013-04-23 20:00:00,
2013-04-23 15:15:00,37.9,37.0,29.97,NNW,346,9.0,16.0,96,0.04,,,0.64,weatherlink.com 1.10,2013-04-23 20:15:00,
2013-04-23 15:30:00,37.9,37.0,29.96,NW,326,7.0,14.0,95,0.03,,,0.64,weatherlink.com 1.10,2013-04-23 20:30:00,
2013-04-23 15:45:00,37.9,37.0,29.97,NNW,344,12.0,13.0,95,0.02,,,0.64,weatherlink.com 1.10,2013-04-23 20:45:00,
2013-04-23 16:00:00,37.7,36.0,29.97,NW,321,8.0,16.0,94,0.03,,,0.66,weatherlink.com 1.10,2013-04-23 21:00:00,
2013-04-23 16:15:00,37.6,36.0,29.97,NW,315,6.0,13.0,94,0.02,,,0.66,weatherlink.com 1.10,2013-04-23 21:15:00,
2013-04-23 16:30:00,37.5,36.0,29.96,WNW,294,11.0,17.0,94,0.03,,,0.67,weatherlink.com 1.10,2013-04-23 21:30:00,
2013-04-23 16:45:00,37.4,36.0,29.97,NNW,336,6.0,14.0,94,0.03,,,0.67,weatherlink.com 1.10,2013-04-23 21:45:00,
2013-04-23 17:00:00,37.5,36.0,29.96,North,360,8.0,17.0,95,0.01,,,0.67,weatherlink.com 1.10,2013-04-23 22:00:00,
2013-04-23 17:15:00,37.5,36.0,29.96,NNW,339,4.0,15.0,94,0.01,,,0.67,weatherlink.com 1.10,2013-04-23 22:15:00,
2013-04-23 17:30:00,37.5,36.0,29.96,North,355,9.0,20.0,95,0.00,,,0.67,weatherlink.com 1.10,2013-04-23 22:30:00,
2013-04-23 17:45:00,37.3,36.0,29.97,North,9,6.0,16.0,94,0.00,,,0.67,weatherlink.com 1.10,2013-04-23 22:45:00,
2013-04-23 18:00:00,37.2,36.0,29.97,NNW,327,6.0,15.0,95,0.00,,,0.67,weatherlink.com 1.10,2013-04-23 23:00:00,
2013-04-23 18:15:00,37.0,36.0,29.98,NW,316,8.0,15.0,95,0.00,,,0.67,weatherlink.com 1.10,2013-04-23 23:15:00,
2013-04-23 18:30:00,37.0,36.0,29.98,NNW,333,11.0,16.0,95,0.00,,,0.67,weatherlink.com 1.10,2013-04-23 23:30:00,
2013-04-23 18:45:00,37.0,36.0,29.99,NNW,333,14.0,16.0,95,0.00,,,0.67,weatherlink.com 1.10,2013-04-23 23:45:00,
2013-04-23 19:00:00,37.0,36.0,30.00,North,5,6.0,15.0,95,0.00,,,0.67,weatherlink.com 1.10,2013-04-24 00:00:00,
2013-04-23 19:15:00,36.9,36.0,29.99,NNW,340,10.0,14.0,95,0.00,,,0.67,weatherlink.com 1.10,2013-04-24 00:15:00,
2013-04-23 19:30:00,36.9,36.0,30.00,NNW,337,6.0,14.0,95,0.01,,,0.68,weatherlink.com 1.10,2013-04-24 00:30:00,
2013-04-23 19:45:00,36.9,36.0,30.00,NNW,333,3.0,13.0,95,0.01,,,0.68,weatherlink.com 1.10,2013-04-24 00:45:00,
2013-04-23 20:00:00,36.6,35.0,30.00,NW,311,7.0,14.0,95,0.01,,,0.68,weatherlink.com 1.10,2013-04-24 01:00:00,
2013-04-23 20:15:00,36.6,35.0,30.01,NNW,336,8.0,14.0,95,0.01,,,0.68,weatherlink.com 1.10,2013-04-24 01:15:00,
2013-04-23 20:31:00,36.6,35.0,30.02,NNW,327,6.0,15.0,95,0.00,,,0.68,weatherlink.com 1.10,2013-04-24 01:31:00,
2013-04-23 20:46:00,36.6,35.0,30.02,WNW,282,6.0,11.0,95,0.01,,,0.69,weatherlink.com 1.10,2013-04-24 01:46:00,
2013-04-23 21:01:00,36.6,35.0,30.03,North,355,4.0,11.0,95,0.03,,,0.71,weatherlink.com 1.10,2013-04-24 02:01:00,
2013-04-23 21:31:00,36.6,35.0,30.05,NNW,336,6.0,11.0,95,0.03,,,0.71,weatherlink.com 1.10,2013-04-24 02:31:00,
2013-04-23 21:46:00,36.6,35.0,30.05,NNW,343,2.0,10.0,95,0.01,,,0.71,weatherlink.com 1.10,2013-04-24 02:46:00,
2013-04-23 22:01:00,36.6,36.0,30.06,NNW,344,3.0,9.0,96,0.00,,,0.71,weatherlink.com 1.10,2013-04-24 03:01:00,
2013-04-23 22:16:00,36.5,36.0,30.06,NNW,346,2.0,10.0,96,0.01,,,0.72,weatherlink.com 1.10,2013-04-24 03:16:00,
2013-04-23 23:01:00,36.4,35.0,30.08,NW,317,5.0,11.0,96,0.01,,,0.72,weatherlink.com 1.10,2013-04-24 04:01:00,
2013-04-23 23:16:00,36.3,35.0,30.08,NW,321,4.0,9.0,95,0.00,,,0.72,weatherlink.com 1.10,2013-04-24 04:16:00,
2013-04-23 23:31:00,36.3,35.0,30.08,NW,316,3.0,10.0,95,0.00,,,0.72,weatherlink.com 1.10,2013-04-24 04:31:00,
2013-04-23 23:46:00,36.3,35.0,30.08,NW,323,5.0,9.0,95,0.00,,,0.72,weatherlink.com 1.10,2013-04-24 04:46:00,